sensor_id;sensor_type;location;lat;lon;timestamp;P1;durP1;ratioP1;P2;durP2;ratioP2
56599;SDS011;51832;48.152;11.530;2023-02-11T00:02:29;28.60;;;12.45;;
56599;SDS011;51832;48.152;11.530;2023-02-11T00:07:31;24.75;;;12.55;;
56599;SDS011;51832;48.152;11.530;2023-02-11T00:12:35;21.77;;;11.73;;
56599;SDS011;51832;48.152;11.530;2023-02-11T00:17:37;25.13;;;12.13;;
56599;SDS011;51832;48.152;11.530;2023-02-11T00:22:37;26.25;;;13.43;;
56599;SDS011;51832;48.152;11.530;2023-02-11T00:27:38;26.67;;;12.88;;
56599;SDS011;51832;48.152;11.530;2023-02-11T00:32:38;25.33;;;12.35;;
56599;SDS011;51832;48.152;11.530;2023-02-11T00:37:41;25.83;;;12.05;;
56599;SDS011;51832;48.152;11.530;2023-02-11T00:42:42;25.58;;;12.13;;
56599;SDS011;51832;48.152;11.530;2023-02-11T00:47:42;26.92;;;12.73;;
56599;SDS011;51832;48.152;11.530;2023-02-11T00:52:43;29.20;;;12.45;;
56599;SDS011;51832;48.152;11.530;2023-02-11T00:57:43;24.27;;;11.50;;
56599;SDS011;51832;48.152;11.530;2023-02-11T01:02:44;23.95;;;12.63;;
56599;SDS011;51832;48.152;11.530;2023-02-11T01:07:45;27.70;;;11.13;;
56599;SDS011;51832;48.152;11.530;2023-02-11T01:12:45;22.45;;;11.35;;
56599;SDS011;51832;48.152;11.530;2023-02-11T01:17:46;21.63;;;11.15;;
56599;SDS011;51832;48.152;11.530;2023-02-11T01:22:47;25.70;;;12.88;;
56599;SDS011;51832;48.152;11.530;2023-02-11T01:27:47;25.77;;;10.80;;
56599;SDS011;51832;48.152;11.530;2023-02-11T01:32:48;27.15;;;12.13;;
56599;SDS011;51832;48.152;11.530;2023-02-11T01:37:48;22.15;;;10.93;;
56599;SDS011;51832;48.152;11.530;2023-02-11T01:42:49;21.50;;;10.57;;
56599;SDS011;51832;48.152;11.530;2023-02-11T01:47:49;20.52;;;9.95;;
56599;SDS011;51832;48.152;11.530;2023-02-11T01:52:50;20.25;;;10.32;;
56599;SDS011;51832;48.152;11.530;2023-02-11T01:57:51;21.75;;;10.80;;
56599;SDS011;51832;48.152;11.530;2023-02-11T02:13:06;21.00;;;9.95;;
56599;SDS011;51832;48.152;11.530;2023-02-11T02:23:37;23.80;;;10.02;;
56599;SDS011;51832;48.152;11.530;2023-02-11T02:39:25;18.08;;;9.05;;
56599;SDS011;51832;48.152;11.530;2023-02-11T02:44:29;17.13;;;8.95;;
56599;SDS011;51832;48.152;11.530;2023-02-11T02:49:30;18.15;;;9.07;;
56599;SDS011;51832;48.152;11.530;2023-02-11T03:00:04;16.30;;;8.32;;
56599;SDS011;51832;48.152;11.530;2023-02-11T03:05:23;15.07;;;7.88;;
56599;SDS011;51832;48.152;11.530;2023-02-11T03:10:30;16.92;;;8.20;;
56599;SDS011;51832;48.152;11.530;2023-02-11T03:15:36;16.80;;;8.32;;
56599;SDS011;51832;48.152;11.530;2023-02-11T03:20:42;15.93;;;8.27;;
56599;SDS011;51832;48.152;11.530;2023-02-11T03:25:49;17.50;;;7.25;;
56599;SDS011;51832;48.152;11.530;2023-02-11T03:36:04;13.60;;;7.47;;
56599;SDS011;51832;48.152;11.530;2023-02-11T03:41:08;13.50;;;7.10;;
56599;SDS011;51832;48.152;11.530;2023-02-11T03:46:12;12.90;;;7.20;;
56599;SDS011;51832;48.152;11.530;2023-02-11T03:51:17;16.23;;;7.30;;
56599;SDS011;51832;48.152;11.530;2023-02-11T03:56:22;13.18;;;7.07;;
56599;SDS011;51832;48.152;11.530;2023-02-11T04:01:25;14.65;;;7.10;;
56599;SDS011;51832;48.152;11.530;2023-02-11T04:06:26;15.07;;;7.28;;
56599;SDS011;51832;48.152;11.530;2023-02-11T04:11:26;11.80;;;6.68;;
56599;SDS011;51832;48.152;11.530;2023-02-11T04:16:27;12.25;;;6.30;;
56599;SDS011;51832;48.152;11.530;2023-02-11T04:21:29;14.63;;;6.78;;
56599;SDS011;51832;48.152;11.530;2023-02-11T04:26:30;14.45;;;6.13;;
56599;SDS011;51832;48.152;11.530;2023-02-11T04:31:30;12.02;;;6.70;;
56599;SDS011;51832;48.152;11.530;2023-02-11T04:36:31;12.85;;;6.65;;
56599;SDS011;51832;48.152;11.530;2023-02-11T04:41:31;13.48;;;6.40;;
56599;SDS011;51832;48.152;11.530;2023-02-11T04:46:31;10.75;;;6.25;;
56599;SDS011;51832;48.152;11.530;2023-02-11T04:51:32;12.00;;;6.40;;
56599;SDS011;51832;48.152;11.530;2023-02-11T04:56:32;15.48;;;6.10;;
56599;SDS011;51832;48.152;11.530;2023-02-11T05:01:33;11.65;;;6.57;;
56599;SDS011;51832;48.152;11.530;2023-02-11T05:06:33;14.23;;;7.03;;
56599;SDS011;51832;48.152;11.530;2023-02-11T05:11:34;10.52;;;6.03;;
56599;SDS011;51832;48.152;11.530;2023-02-11T05:16:35;13.98;;;6.60;;
56599;SDS011;51832;48.152;11.530;2023-02-11T05:21:36;12.07;;;6.22;;
56599;SDS011;51832;48.152;11.530;2023-02-11T05:26:36;14.30;;;6.78;;
56599;SDS011;51832;48.152;11.530;2023-02-11T05:31:36;14.65;;;7.57;;
56599;SDS011;51832;48.152;11.530;2023-02-11T05:36:37;15.73;;;7.38;;
56599;SDS011;51832;48.152;11.530;2023-02-11T05:41:37;12.20;;;6.70;;
56599;SDS011;51832;48.152;11.530;2023-02-11T05:46:38;12.05;;;6.82;;
56599;SDS011;51832;48.152;11.530;2023-02-11T05:51:38;13.20;;;6.88;;
56599;SDS011;51832;48.152;11.530;2023-02-11T05:56:39;11.82;;;6.70;;
56599;SDS011;51832;48.152;11.530;2023-02-11T06:01:39;12.48;;;6.60;;
56599;SDS011;51832;48.152;11.530;2023-02-11T06:06:40;11.27;;;6.32;;
56599;SDS011;51832;48.152;11.530;2023-02-11T06:11:40;16.25;;;6.82;;
56599;SDS011;51832;48.152;11.530;2023-02-11T06:16:40;10.18;;;6.57;;
56599;SDS011;51832;48.152;11.530;2023-02-11T06:21:41;11.63;;;6.05;;
56599;SDS011;51832;48.152;11.530;2023-02-11T06:26:41;14.25;;;6.00;;
56599;SDS011;51832;48.152;11.530;2023-02-11T06:31:42;9.73;;;5.53;;
56599;SDS011;51832;48.152;11.530;2023-02-11T06:36:42;10.55;;;5.50;;
56599;SDS011;51832;48.152;11.530;2023-02-11T06:41:43;12.40;;;6.97;;
56599;SDS011;51832;48.152;11.530;2023-02-11T06:46:43;10.63;;;5.47;;
56599;SDS011;51832;48.152;11.530;2023-02-11T06:51:44;10.95;;;5.90;;
56599;SDS011;51832;48.152;11.530;2023-02-11T06:56:44;17.38;;;6.72;;
56599;SDS011;51832;48.152;11.530;2023-02-11T07:01:45;15.43;;;6.00;;
56599;SDS011;51832;48.152;11.530;2023-02-11T07:06:46;15.77;;;5.72;;
56599;SDS011;51832;48.152;11.530;2023-02-11T07:11:46;11.27;;;5.72;;
56599;SDS011;51832;48.152;11.530;2023-02-11T07:16:46;10.75;;;4.90;;
56599;SDS011;51832;48.152;11.530;2023-02-11T07:21:47;8.98;;;4.78;;
56599;SDS011;51832;48.152;11.530;2023-02-11T07:26:47;9.25;;;5.07;;
56599;SDS011;51832;48.152;11.530;2023-02-11T07:31:48;10.18;;;4.88;;
56599;SDS011;51832;48.152;11.530;2023-02-11T07:36:49;8.05;;;4.57;;
56599;SDS011;51832;48.152;11.530;2023-02-11T07:41:49;6.97;;;4.60;;
56599;SDS011;51832;48.152;11.530;2023-02-11T07:46:50;8.90;;;4.70;;
56599;SDS011;51832;48.152;11.530;2023-02-11T07:51:50;11.75;;;5.43;;
56599;SDS011;51832;48.152;11.530;2023-02-11T07:56:51;9.07;;;4.75;;
56599;SDS011;51832;48.152;11.530;2023-02-11T08:01:51;9.25;;;5.28;;
56599;SDS011;51832;48.152;11.530;2023-02-11T08:06:52;10.45;;;5.10;;
56599;SDS011;51832;48.152;11.530;2023-02-11T08:11:54;9.25;;;5.22;;
56599;SDS011;51832;48.152;11.530;2023-02-11T08:16:55;11.18;;;5.90;;
56599;SDS011;51832;48.152;11.530;2023-02-11T08:21:55;9.75;;;5.38;;
56599;SDS011;51832;48.152;11.530;2023-02-11T08:26:56;11.45;;;5.28;;
56599;SDS011;51832;48.152;11.530;2023-02-11T08:31:56;15.00;;;6.07;;
56599;SDS011;51832;48.152;11.530;2023-02-11T08:36:57;11.93;;;5.68;;
56599;SDS011;51832;48.152;11.530;2023-02-11T08:41:57;13.57;;;5.47;;
56599;SDS011;51832;48.152;11.530;2023-02-11T08:46:57;14.75;;;6.60;;
56599;SDS011;51832;48.152;11.530;2023-02-11T08:51:58;14.10;;;7.13;;
56599;SDS011;51832;48.152;11.530;2023-02-11T08:57:03;13.23;;;6.55;;
56599;SDS011;51832;48.152;11.530;2023-02-11T09:02:03;15.10;;;7.20;;
56599;SDS011;51832;48.152;11.530;2023-02-11T09:07:04;13.75;;;7.57;;
56599;SDS011;51832;48.152;11.530;2023-02-11T09:12:04;15.55;;;8.02;;
56599;SDS011;51832;48.152;11.530;2023-02-11T09:17:05;19.38;;;8.25;;
56599;SDS011;51832;48.152;11.530;2023-02-11T09:22:05;15.20;;;7.60;;
56599;SDS011;51832;48.152;11.530;2023-02-11T09:27:06;18.77;;;7.35;;
56599;SDS011;51832;48.152;11.530;2023-02-11T09:32:06;13.70;;;7.18;;
56599;SDS011;51832;48.152;11.530;2023-02-11T09:37:06;14.57;;;7.38;;
56599;SDS011;51832;48.152;11.530;2023-02-11T09:42:09;14.90;;;7.93;;
56599;SDS011;51832;48.152;11.530;2023-02-11T09:47:34;15.52;;;7.60;;
56599;SDS011;51832;48.152;11.530;2023-02-11T09:52:46;16.17;;;7.78;;
56599;SDS011;51832;48.152;11.530;2023-02-11T09:57:53;16.60;;;8.57;;
56599;SDS011;51832;48.152;11.530;2023-02-11T10:03:01;17.45;;;7.55;;
56599;SDS011;51832;48.152;11.530;2023-02-11T10:18:39;17.60;;;8.45;;
56599;SDS011;51832;48.152;11.530;2023-02-11T10:23:50;19.05;;;8.77;;
56599;SDS011;51832;48.152;11.530;2023-02-11T10:28:53;16.00;;;8.85;;
56599;SDS011;51832;48.152;11.530;2023-02-11T10:34:05;19.42;;;8.57;;
56599;SDS011;51832;48.152;11.530;2023-02-11T10:39:16;17.02;;;8.20;;
56599;SDS011;51832;48.152;11.530;2023-02-11T10:44:21;16.75;;;8.45;;
56599;SDS011;51832;48.152;11.530;2023-02-11T10:49:38;18.17;;;8.60;;
56599;SDS011;51832;48.152;11.530;2023-02-11T10:54:40;25.15;;;12.45;;
56599;SDS011;51832;48.152;11.530;2023-02-11T10:59:40;16.10;;;8.55;;
56599;SDS011;51832;48.152;11.530;2023-02-11T11:04:42;19.52;;;9.15;;
56599;SDS011;51832;48.152;11.530;2023-02-11T11:14:52;20.10;;;8.38;;
56599;SDS011;51832;48.152;11.530;2023-02-11T11:30:30;18.58;;;7.63;;
56599;SDS011;51832;48.152;11.530;2023-02-11T11:35:38;19.27;;;7.43;;
56599;SDS011;51832;48.152;11.530;2023-02-11T11:40:39;16.67;;;7.30;;
56599;SDS011;51832;48.152;11.530;2023-02-11T11:45:53;15.35;;;7.07;;
56599;SDS011;51832;48.152;11.530;2023-02-11T11:51:00;15.10;;;6.85;;
56599;SDS011;51832;48.152;11.530;2023-02-11T11:56:23;17.23;;;7.22;;
56599;SDS011;51832;48.152;11.530;2023-02-11T12:28:24;15.52;;;7.57;;
56599;SDS011;51832;48.152;11.530;2023-02-11T12:33:47;15.50;;;7.40;;
56599;SDS011;51832;48.152;11.530;2023-02-11T12:44:34;15.32;;;7.07;;
56599;SDS011;51832;48.152;11.530;2023-02-11T12:54:51;15.25;;;7.00;;
56599;SDS011;51832;48.152;11.530;2023-02-11T13:05:06;14.00;;;7.68;;
56599;SDS011;51832;48.152;11.530;2023-02-11T13:15:21;13.97;;;7.37;;
56599;SDS011;51832;48.152;11.530;2023-02-11T13:20:25;11.18;;;6.63;;
56599;SDS011;51832;48.152;11.530;2023-02-11T13:30:58;16.38;;;7.70;;
56599;SDS011;51832;48.152;11.530;2023-02-11T13:41:04;14.97;;;7.43;;
56599;SDS011;51832;48.152;11.530;2023-02-11T13:46:16;15.98;;;7.70;;
56599;SDS011;51832;48.152;11.530;2023-02-11T13:51:17;11.80;;;6.25;;
56599;SDS011;51832;48.152;11.530;2023-02-11T14:02:00;13.65;;;7.13;;
56599;SDS011;51832;48.152;11.530;2023-02-11T14:07:37;13.25;;;6.00;;
56599;SDS011;51832;48.152;11.530;2023-02-11T14:23:44;11.55;;;6.90;;
56599;SDS011;51832;48.152;11.530;2023-02-11T14:28:59;15.25;;;6.65;;
56599;SDS011;51832;48.152;11.530;2023-02-11T14:44:44;17.17;;;8.30;;
56599;SDS011;51832;48.152;11.530;2023-02-11T14:49:48;22.67;;;8.45;;
56599;SDS011;51832;48.152;11.530;2023-02-11T14:54:49;18.98;;;8.55;;
56599;SDS011;51832;48.152;11.530;2023-02-11T14:59:59;16.20;;;8.60;;
56599;SDS011;51832;48.152;11.530;2023-02-11T15:10:25;20.45;;;9.93;;
56599;SDS011;51832;48.152;11.530;2023-02-11T15:15:27;18.92;;;10.00;;
56599;SDS011;51832;48.152;11.530;2023-02-11T15:20:30;24.42;;;10.63;;
56599;SDS011;51832;48.152;11.530;2023-02-11T15:25:32;17.38;;;9.70;;
56599;SDS011;51832;48.152;11.530;2023-02-11T15:30:34;24.90;;;11.45;;
56599;SDS011;51832;48.152;11.530;2023-02-11T15:35:38;23.65;;;10.90;;
56599;SDS011;51832;48.152;11.530;2023-02-11T15:40:39;20.58;;;11.13;;
56599;SDS011;51832;48.152;11.530;2023-02-11T15:45:58;28.50;;;13.80;;
56599;SDS011;51832;48.152;11.530;2023-02-11T15:51:09;20.33;;;10.88;;
56599;SDS011;51832;48.152;11.530;2023-02-11T15:56:48;23.67;;;10.93;;
56599;SDS011;51832;48.152;11.530;2023-02-11T16:01:50;19.73;;;11.55;;
56599;SDS011;51832;48.152;11.530;2023-02-11T16:06:55;20.88;;;11.63;;
56599;SDS011;51832;48.152;11.530;2023-02-11T16:11:57;22.35;;;10.82;;
56599;SDS011;51832;48.152;11.530;2023-02-11T16:17:00;21.38;;;12.20;;
56599;SDS011;51832;48.152;11.530;2023-02-11T16:22:16;20.80;;;11.25;;
56599;SDS011;51832;48.152;11.530;2023-02-11T16:27:25;23.40;;;11.88;;
56599;SDS011;51832;48.152;11.530;2023-02-11T16:32:29;23.60;;;11.30;;
56599;SDS011;51832;48.152;11.530;2023-02-11T16:37:30;22.40;;;11.30;;
56599;SDS011;51832;48.152;11.530;2023-02-11T16:42:31;24.10;;;12.23;;
56599;SDS011;51832;48.152;11.530;2023-02-11T16:47:31;25.75;;;12.43;;
56599;SDS011;51832;48.152;11.530;2023-02-11T16:52:43;24.08;;;11.60;;
56599;SDS011;51832;48.152;11.530;2023-02-11T16:57:45;22.27;;;12.52;;
56599;SDS011;51832;48.152;11.530;2023-02-11T17:02:45;23.00;;;12.35;;
56599;SDS011;51832;48.152;11.530;2023-02-11T17:07:46;25.27;;;12.85;;
56599;SDS011;51832;48.152;11.530;2023-02-11T17:12:47;24.15;;;12.82;;
56599;SDS011;51832;48.152;11.530;2023-02-11T17:17:48;30.88;;;14.80;;
56599;SDS011;51832;48.152;11.530;2023-02-11T17:22:49;27.27;;;14.68;;
56599;SDS011;51832;48.152;11.530;2023-02-11T17:27:49;29.92;;;15.02;;
56599;SDS011;51832;48.152;11.530;2023-02-11T17:32:50;29.15;;;15.15;;
56599;SDS011;51832;48.152;11.530;2023-02-11T17:37:50;31.42;;;15.05;;
56599;SDS011;51832;48.152;11.530;2023-02-11T17:42:51;32.08;;;17.02;;
56599;SDS011;51832;48.152;11.530;2023-02-11T17:47:52;26.92;;;14.68;;
56599;SDS011;51832;48.152;11.530;2023-02-11T17:52:52;28.40;;;14.45;;
56599;SDS011;51832;48.152;11.530;2023-02-11T17:57:53;26.13;;;13.90;;
56599;SDS011;51832;48.152;11.530;2023-02-11T18:02:54;26.75;;;14.30;;
56599;SDS011;51832;48.152;11.530;2023-02-11T18:07:55;28.58;;;15.77;;
56599;SDS011;51832;48.152;11.530;2023-02-11T18:12:55;31.45;;;16.00;;
56599;SDS011;51832;48.152;11.530;2023-02-11T18:17:56;27.40;;;15.35;;
56599;SDS011;51832;48.152;11.530;2023-02-11T18:22:56;27.17;;;14.45;;
56599;SDS011;51832;48.152;11.530;2023-02-11T18:27:57;27.33;;;14.80;;
56599;SDS011;51832;48.152;11.530;2023-02-11T18:32:57;24.92;;;13.48;;
56599;SDS011;51832;48.152;11.530;2023-02-11T18:37:58;27.23;;;14.38;;
56599;SDS011;51832;48.152;11.530;2023-02-11T18:42:58;24.65;;;14.60;;
56599;SDS011;51832;48.152;11.530;2023-02-11T18:47:59;25.92;;;14.15;;
56599;SDS011;51832;48.152;11.530;2023-02-11T18:53:02;31.23;;;15.82;;
56599;SDS011;51832;48.152;11.530;2023-02-11T18:58:03;25.75;;;15.77;;
56599;SDS011;51832;48.152;11.530;2023-02-11T19:03:03;31.30;;;16.17;;
56599;SDS011;51832;48.152;11.530;2023-02-11T19:08:04;27.98;;;15.13;;
56599;SDS011;51832;48.152;11.530;2023-02-11T19:13:04;25.15;;;14.15;;
56599;SDS011;51832;48.152;11.530;2023-02-11T19:18:04;26.02;;;14.30;;
56599;SDS011;51832;48.152;11.530;2023-02-11T19:23:05;27.05;;;14.07;;
56599;SDS011;51832;48.152;11.530;2023-02-11T19:28:06;25.60;;;13.95;;
56599;SDS011;51832;48.152;11.530;2023-02-11T19:33:06;29.15;;;14.05;;
56599;SDS011;51832;48.152;11.530;2023-02-11T19:38:07;25.75;;;15.20;;
56599;SDS011;51832;48.152;11.530;2023-02-11T19:43:07;30.25;;;15.85;;
56599;SDS011;51832;48.152;11.530;2023-02-11T19:48:08;30.67;;;15.98;;
56599;SDS011;51832;48.152;11.530;2023-02-11T19:53:11;25.08;;;14.95;;
56599;SDS011;51832;48.152;11.530;2023-02-11T19:58:12;32.10;;;16.88;;
56599;SDS011;51832;48.152;11.530;2023-02-11T20:03:13;37.78;;;17.65;;
56599;SDS011;51832;48.152;11.530;2023-02-11T20:08:13;27.77;;;16.58;;
56599;SDS011;51832;48.152;11.530;2023-02-11T20:13:15;31.42;;;16.45;;
56599;SDS011;51832;48.152;11.530;2023-02-11T20:18:16;28.98;;;15.80;;
56599;SDS011;51832;48.152;11.530;2023-02-11T20:23:16;32.70;;;17.15;;
56599;SDS011;51832;48.152;11.530;2023-02-11T20:28:17;28.20;;;15.10;;
56599;SDS011;51832;48.152;11.530;2023-02-11T20:33:17;25.40;;;15.82;;
56599;SDS011;51832;48.152;11.530;2023-02-11T20:38:18;27.02;;;15.55;;
56599;SDS011;51832;48.152;11.530;2023-02-11T20:43:19;28.38;;;15.57;;
56599;SDS011;51832;48.152;11.530;2023-02-11T20:48:20;25.90;;;14.43;;
56599;SDS011;51832;48.152;11.530;2023-02-11T20:53:20;28.35;;;16.52;;
56599;SDS011;51832;48.152;11.530;2023-02-11T20:58:21;30.75;;;16.02;;
56599;SDS011;51832;48.152;11.530;2023-02-11T21:03:21;26.33;;;16.17;;
56599;SDS011;51832;48.152;11.530;2023-02-11T21:08:22;27.35;;;15.73;;
56599;SDS011;51832;48.152;11.530;2023-02-11T21:13:23;28.92;;;14.98;;
56599;SDS011;51832;48.152;11.530;2023-02-11T21:18:24;24.13;;;13.73;;
56599;SDS011;51832;48.152;11.530;2023-02-11T21:23:25;27.38;;;14.23;;
56599;SDS011;51832;48.152;11.530;2023-02-11T21:28:25;34.63;;;15.40;;
56599;SDS011;51832;48.152;11.530;2023-02-11T21:33:26;33.40;;;15.15;;
56599;SDS011;51832;48.152;11.530;2023-02-11T21:38:27;26.02;;;13.90;;
56599;SDS011;51832;48.152;11.530;2023-02-11T21:43:28;29.48;;;14.23;;
56599;SDS011;51832;48.152;11.530;2023-02-11T21:48:29;30.58;;;15.88;;
56599;SDS011;51832;48.152;11.530;2023-02-11T21:53:30;29.48;;;15.32;;
56599;SDS011;51832;48.152;11.530;2023-02-11T21:58:30;31.48;;;15.13;;
56599;SDS011;51832;48.152;11.530;2023-02-11T22:03:31;29.77;;;14.10;;
56599;SDS011;51832;48.152;11.530;2023-02-11T22:08:31;27.58;;;13.45;;
56599;SDS011;51832;48.152;11.530;2023-02-11T22:13:32;34.00;;;16.42;;
56599;SDS011;51832;48.152;11.530;2023-02-11T22:18:33;32.58;;;17.25;;
56599;SDS011;51832;48.152;11.530;2023-02-11T22:23:34;38.90;;;17.23;;
56599;SDS011;51832;48.152;11.530;2023-02-11T22:28:36;35.17;;;16.33;;
56599;SDS011;51832;48.152;11.530;2023-02-11T22:33:39;26.70;;;14.35;;
56599;SDS011;51832;48.152;11.530;2023-02-11T22:38:40;27.52;;;15.25;;
56599;SDS011;51832;48.152;11.530;2023-02-11T22:43:41;31.73;;;15.65;;
56599;SDS011;51832;48.152;11.530;2023-02-11T22:48:43;27.70;;;15.07;;
56599;SDS011;51832;48.152;11.530;2023-02-11T22:53:47;29.08;;;14.68;;
56599;SDS011;51832;48.152;11.530;2023-02-11T22:58:58;27.38;;;13.93;;
56599;SDS011;51832;48.152;11.530;2023-02-11T23:04:01;27.17;;;14.13;;
56599;SDS011;51832;48.152;11.530;2023-02-11T23:09:04;26.52;;;14.85;;
56599;SDS011;51832;48.152;11.530;2023-02-11T23:14:06;24.40;;;13.10;;
56599;SDS011;51832;48.152;11.530;2023-02-11T23:19:09;27.70;;;14.43;;
56599;SDS011;51832;48.152;11.530;2023-02-11T23:24:11;28.95;;;13.95;;
56599;SDS011;51832;48.152;11.530;2023-02-11T23:29:13;26.45;;;14.65;;
56599;SDS011;51832;48.152;11.530;2023-02-11T23:34:14;24.73;;;13.68;;
56599;SDS011;51832;48.152;11.530;2023-02-11T23:39:16;22.65;;;13.00;;
56599;SDS011;51832;48.152;11.530;2023-02-11T23:44:16;23.80;;;13.10;;
56599;SDS011;51832;48.152;11.530;2023-02-11T23:49:17;24.20;;;13.27;;
56599;SDS011;51832;48.152;11.530;2023-02-11T23:54:18;25.48;;;13.75;;
56599;SDS011;51832;48.152;11.530;2023-02-11T23:59:18;26.83;;;15.07;;
